Time;durP1;ratioP1;P1;durP2;ratioP2;P2;SDS_P1;SDS_P2;PMS_P1;PMS_P2;Temp;Humidity;BMP_temperature;BMP_pressure;BME280_temperature;BME280_humidity;BME280_pressure;Samples;Min_cycle;Max_cycle;Signal;HPM_P1;HPM_P2
2021/08/14 00:01:39;;;;;;;9.43;7.55;;;;;;;18.72;76.70;97563.22;5003569;28;20060;-68
2021/08/14 00:04:06;;;;;;;8.70;7.80;;;;;;;19.89;76.61;97742.97;5003621;28;20093;-67
2021/08/14 00:06:33;;;;;;;10.43;7.88;;;;;;;19.78;77.11;97731.00;5003140;28;20053;-67
2021/08/14 00:09:00;;;;;;;9.13;8.23;;;;;;;19.73;77.13;97737.88;5004903;28;20529;-68
2021/08/14 00:11:27;;;;;;;12.38;7.40;;;;;;;19.54;78.03;97747.66;5003185;28;20447;-66
2021/08/14 00:13:54;;;;;;;9.23;7.25;;;;;;;19.46;78.86;97742.50;5003299;28;20054;-69
2021/08/14 00:16:21;;;;;;;11.82;7.70;;;;;;;19.46;78.91;97743.31;5002573;28;20060;-68
2021/08/14 00:18:48;;;;;;;10.52;8.35;;;;;;;19.20;78.80;97712.94;5005265;28;20124;-68
2021/08/14 00:21:15;;;;;;;8.40;7.13;;;;;;;19.34;79.13;97746.59;5002980;28;20053;-68
2021/08/14 00:23:43;;;;;;;9.32;7.43;;;;;;;19.12;79.44;97705.78;5003332;28;20374;-68
2021/08/14 00:26:10;;;;;;;7.78;7.03;;;;;;;19.17;79.83;97736.22;5004421;28;20089;-67
2021/08/14 00:28:37;;;;;;;9.48;8.02;;;;;;;18.89;79.98;97713.91;5004539;28;20050;-68
2021/08/14 00:31:04;;;;;;;11.25;7.47;;;;;;;18.87;79.61;97685.47;5002614;28;20066;-68
2021/08/14 00:33:32;;;;;;;9.40;7.70;;;;;;;18.93;78.89;97681.00;5004530;28;20343;-68
2021/08/14 00:35:59;;;;;;;8.20;7.35;;;;;;;19.48;78.26;97745.69;5002172;28;20532;-68
2021/08/14 00:38:29;;;;;;;10.45;7.47;;;;;;;19.57;77.83;97739.63;5004949;28;20064;-68
2021/08/14 00:40:56;;;;;;;10.85;8.27;;;;;;;19.58;77.78;97749.66;5002310;28;20081;-69
2021/08/14 00:43:23;;;;;;;9.45;7.05;;;;;;;19.58;77.79;97746.84;5004400;28;20128;-68
2021/08/14 00:45:51;;;;;;;9.88;7.72;;;;;;;19.58;77.57;97744.84;5003065;28;20058;-68
2021/08/14 00:48:32;;;;;;;12.52;7.45;;;;;;;19.65;77.15;97746.81;5004582;28;20070;-68
2021/08/14 00:51:08;;;;;;;10.73;7.15;;;;;;;19.08;77.69;97664.84;5002814;28;20062;-67
2021/08/14 00:53:36;;;;;;;10.85;7.65;;;;;;;19.68;76.95;97723.47;5002482;28;20054;-67
2021/08/14 00:56:04;;;;;;;8.77;7.47;;;;;;;19.73;76.88;97734.28;5002817;28;20447;-68
2021/08/14 00:58:33;;;;;;;8.63;7.43;;;;;;;19.63;77.21;97729.53;5002753;28;20555;-66
2021/08/14 01:01:02;;;;;;;8.60;7.70;;;;;;;19.58;77.56;97734.38;5002829;28;20123;-67
2021/08/14 01:03:31;;;;;;;8.50;7.07;;;;;;;19.15;78.40;97716.19;5002707;28;20085;-67
2021/08/14 01:05:58;;;;;;;9.00;8.13;;;;;;;19.15;78.15;97696.53;5003700;28;20045;-68
2021/08/14 01:08:25;;;;;;;10.98;7.60;;;;;;;19.41;77.86;97797.13;5002689;28;20144;-67
2021/08/14 01:10:53;;;;;;;16.73;8.55;;;;;;;18.97;78.83;97703.44;5002014;28;20473;-68
2021/08/14 01:13:21;;;;;;;9.02;7.53;;;;;;;19.32;78.92;97754.63;5002328;28;20060;-67
2021/08/14 01:15:49;;;;;;;7.85;7.13;;;;;;;19.22;77.88;97710.50;5002508;28;20530;-68
2021/08/14 01:18:18;;;;;;;9.35;7.35;;;;;;;19.51;77.81;97748.50;5002753;28;20120;-68
2021/08/14 01:20:46;;;;;;;11.93;8.43;;;;;;;19.44;77.69;97737.28;5003899;28;20108;-67
2021/08/14 01:23:14;;;;;;;8.77;7.95;;;;;;;19.34;78.50;97717.69;5003663;28;20050;-68
2021/08/14 01:25:42;;;;;;;8.18;7.38;;;;;;;19.58;78.02;97739.22;5003494;28;20189;-68
2021/08/14 01:28:10;;;;;;;8.05;7.25;;;;;;;19.36;77.32;97693.56;5004019;28;20139;-68
2021/08/14 01:30:38;;;;;;;9.95;7.10;;;;;;;19.67;77.37;97724.69;5002145;28;20054;-67
2021/08/14 01:33:07;;;;;;;8.90;7.07;;;;;;;19.39;77.08;97689.16;5001854;28;20588;-68
2021/08/14 01:35:34;;;;;;;8.65;7.00;;;;;;;19.60;76.84;97713.50;5003991;28;20162;-69
2021/08/14 01:38:03;;;;;;;8.02;6.60;;;;;;;19.87;76.52;97739.78;5003872;28;20391;-67
2021/08/14 01:40:30;;;;;;;8.90;6.72;;;;;;;19.93;76.05;97729.69;5002185;28;20138;-68
2021/08/14 01:42:57;;;;;;;10.43;7.93;;;;;;;19.91;76.02;97723.69;5002966;28;20527;-65
2021/08/14 01:45:24;;;;;;;11.65;7.53;;;;;;;19.65;76.14;97687.75;5003394;28;20066;-68
2021/08/14 01:47:50;;;;;;;9.57;7.55;;;;;;;19.77;76.10;97707.75;5003262;28;20054;-69
2021/08/14 01:50:17;;;;;;;10.07;7.45;;;;;;;19.57;76.41;97686.22;5003413;28;20057;-67
2021/08/14 01:52:44;;;;;;;8.43;7.47;;;;;;;19.86;76.15;97722.13;5003926;28;20452;-69
2021/08/14 01:55:11;;;;;;;7.30;6.65;;;;;;;19.74;76.71;97733.06;5002051;28;20144;-69
2021/08/14 01:57:38;;;;;;;8.45;6.68;;;;;;;19.65;77.32;97721.50;5003046;28;20132;-67
2021/08/14 02:00:05;;;;;;;9.15;7.47;;;;;;;19.75;76.94;97714.97;5001888;28;20133;-68
2021/08/14 02:02:32;;;;;;;8.20;7.38;;;;;;;19.21;77.65;97652.72;5001867;28;20116;-69
2021/08/14 02:04:59;;;;;;;7.75;7.05;;;;;;;19.39;77.15;97675.13;5003379;28;20058;-68
2021/08/14 02:07:26;;;;;;;9.60;8.02;;;;;;;19.72;77.17;97710.19;5001991;28;20693;-69
2021/08/14 02:09:54;;;;;;;9.75;6.85;;;;;;;19.71;77.32;97714.22;5002784;28;20057;-68
2021/08/14 02:12:21;;;;;;;9.15;7.97;;;;;;;19.71;77.24;97709.41;5005769;28;20174;-68
2021/08/14 02:14:48;;;;;;;10.75;6.78;;;;;;;19.66;77.90;97706.22;5005932;28;20085;-68
2021/08/14 02:17:15;;;;;;;9.25;7.30;;;;;;;19.16;77.75;97638.31;5005314;28;20049;-66
2021/08/14 02:19:42;;;;;;;9.32;7.88;;;;;;;19.73;78.19;97723.03;5005732;28;20144;-67
2021/08/14 02:22:09;;;;;;;8.43;7.30;;;;;;;19.76;77.46;97699.72;5005508;28;20200;-67
2021/08/14 02:24:35;;;;;;;9.23;7.43;;;;;;;19.22;77.55;97637.47;5007203;28;20096;-68
2021/08/14 02:27:03;;;;;;;7.88;6.97;;;;;;;19.71;78.05;97702.97;5005173;28;20054;-68
2021/08/14 02:29:33;;;;;;;8.32;7.40;;;;;;;19.50;77.79;97673.03;5005355;28;20725;-68
2021/08/14 02:32:01;;;;;;;8.20;7.45;;;;;;;19.68;77.67;97703.81;5005293;28;20057;-67
2021/08/14 02:34:28;;;;;;;9.63;7.95;;;;;;;19.41;77.29;97650.22;5004831;28;20566;-66
2021/08/14 02:36:54;;;;;;;7.68;6.57;;;;;;;19.50;76.99;97665.41;5005068;28;20068;-67
2021/08/14 02:39:21;;;;;;;8.50;7.60;;;;;;;19.60;77.83;97702.25;5006629;28;20068;-68
2021/08/14 02:41:48;;;;;;;8.05;7.05;;;;;;;19.59;78.07;97701.44;5006036;28;20141;-67
2021/08/14 02:44:15;;;;;;;8.05;7.32;;;;;;;19.60;77.66;97697.41;5003392;28;20439;-68
2021/08/14 02:46:42;;;;;;;9.00;7.35;;;;;;;19.31;78.35;97680.00;5004665;28;20045;-67
2021/08/14 02:49:08;;;;;;;12.52;8.00;;;;;;;19.47;78.17;97694.31;5006277;28;20065;-67
2021/08/14 02:51:35;;;;;;;9.52;7.72;;;;;;;19.48;78.24;97701.53;5004816;28;20053;-67
2021/08/14 02:54:02;;;;;;;9.55;7.75;;;;;;;19.14;78.76;97658.38;5006659;28;20062;-68
2021/08/14 02:56:29;;;;;;;9.50;7.80;;;;;;;18.87;79.23;97626.50;5005646;28;20053;-67
2021/08/14 02:58:56;;;;;;;12.13;7.78;;;;;;;19.08;79.26;97664.84;5004129;28;20572;-68
2021/08/14 03:01:22;;;;;;;9.60;7.13;;;;;;;19.27;79.56;97717.69;5004165;28;20045;-67
2021/08/14 03:03:49;;;;;;;10.00;8.35;;;;;;;18.75;79.36;97612.91;5004578;28;20089;-67
2021/08/14 03:06:24;;;;;;;10.52;7.85;;;;;;;18.56;79.99;97607.03;5005845;28;20143;-68
2021/08/14 03:08:51;;;;;;;10.38;8.15;;;;;;;19.06;80.55;97701.00;5004666;28;20148;-68
2021/08/14 03:11:17;;;;;;;7.88;6.72;;;;;;;18.88;79.93;97684.22;5004386;28;20062;-68
2021/08/14 03:13:45;;;;;;;12.73;7.68;;;;;;;18.88;80.30;97677.81;5005201;28;20111;-68
2021/08/14 03:16:11;;;;;;;10.00;7.93;;;;;;;18.92;81.19;97713.06;5006105;28;20092;-66
2021/08/14 03:18:38;;;;;;;10.02;7.88;;;;;;;18.92;81.52;97701.06;5005773;28;20585;-69
2021/08/14 03:21:05;;;;;;;8.75;7.78;;;;;;;18.60;81.03;97650.69;5005198;28;20061;-68
2021/08/14 03:23:32;;;;;;;8.30;7.38;;;;;;;18.92;81.23;97713.06;5004270;28;20054;-69
2021/08/14 03:25:59;;;;;;;10.30;7.32;;;;;;;18.97;80.91;97707.03;5005580;28;20104;-68
2021/08/14 03:28:25;;;;;;;9.35;7.70;;;;;;;18.92;81.07;97713.06;5004509;28;20081;-69
2021/08/14 03:30:52;;;;;;;8.70;7.80;;;;;;;18.76;81.21;97693.09;5005019;28;20520;-68
2021/08/14 03:33:19;;;;;;;9.15;7.22;;;;;;;18.72;81.28;97686.72;5004232;28;20140;-69
2021/08/14 03:35:46;;;;;;;8.20;7.03;;;;;;;18.90;81.07;97709.09;5003980;28;20053;-69
2021/08/14 03:38:12;;;;;;;9.82;7.97;;;;;;;18.64;81.23;97671.13;5004328;28;20169;-68
2021/08/14 03:40:39;;;;;;;10.32;7.80;;;;;;;18.44;81.80;97655.16;5004926;28;20068;-69
2021/08/14 03:43:06;;;;;;;7.47;6.68;;;;;;;18.89;81.39;97716.72;5005210;28;20053;-67
2021/08/14 03:45:33;;;;;;;8.25;7.47;;;;;;;18.68;81.87;97705.59;5004048;28;20058;-69
2021/08/14 03:48:00;;;;;;;8.70;7.35;;;;;;;18.62;80.63;97664.31;5003854;28;20057;-66
2021/08/14 03:50:27;;;;;;;7.88;7.07;;;;;;;19.01;80.33;97713.44;5004136;28;20493;-67
2021/08/14 03:52:53;;;;;;;8.35;7.53;;;;;;;18.97;80.71;97714.66;5003178;28;20085;-68
2021/08/14 03:55:21;;;;;;;11.82;8.00;;;;;;;19.01;80.31;97718.25;5004325;28;20615;-68
2021/08/14 03:57:47;;;;;;;10.43;7.57;;;;;;;19.01;79.89;97738.72;5003561;28;20081;-69
2021/08/14 04:00:15;;;;;;;19.65;8.52;;;;;;;19.03;79.93;97724.28;5004896;28;20501;-68
2021/08/14 04:02:41;;;;;;;18.00;8.50;;;;;;;18.95;80.02;97729.09;5004854;28;20073;-68
2021/08/14 04:05:09;;;;;;;15.20;7.90;;;;;;;18.99;80.24;97732.72;5003120;28;20521;-69
2021/08/14 04:07:36;;;;;;;11.65;7.85;;;;;;;18.77;79.75;97689.09;5003458;28;20435;-68
2021/08/14 04:10:03;;;;;;;12.50;8.55;;;;;;;19.24;78.98;97730.56;5003319;28;20046;-67
2021/08/14 04:12:30;;;;;;;10.00;8.60;;;;;;;19.01;78.49;97698.59;5003763;28;20133;-69
2021/08/14 04:14:59;;;;;;;8.63;7.38;;;;;;;19.12;78.76;97722.63;5003243;28;20069;-68
2021/08/14 04:17:34;;;;;;;13.15;7.20;;;;;;;19.25;78.57;97731.38;5004511;28;20133;-67
2021/08/14 04:20:01;;;;;;;10.48;7.80;;;;;;;19.29;78.49;97727.34;5005402;28;20057;-68
2021/08/14 04:22:28;;;;;;;8.15;7.35;;;;;;;18.98;79.19;97705.84;5004650;28;20097;-66
2021/08/14 04:24:55;;;;;;;10.52;8.02;;;;;;;19.32;78.39;97732.16;5003114;28;20050;-67
2021/08/14 04:27:21;;;;;;;11.02;8.10;;;;;;;19.37;77.34;97717.69;5004622;28;20053;-68
2021/08/14 04:29:49;;;;;;;10.05;7.53;;;;;;;18.85;76.77;97614.88;5003654;28;20060;-69
2021/08/14 04:32:16;;;;;;;13.55;7.70;;;;;;;19.58;76.95;97735.59;5002315;28;20050;-67
2021/08/14 04:34:43;;;;;;;8.45;7.50;;;;;;;19.53;76.34;97715.16;5002717;28;20058;-67
2021/08/14 04:37:11;;;;;;;8.60;7.57;;;;;;;19.84;75.72;97735.00;5004066;28;20053;-66
2021/08/14 04:39:37;;;;;;;13.57;7.25;;;;;;;19.81;75.48;97718.94;5003226;28;20058;-69
2021/08/14 04:42:05;;;;;;;11.02;7.78;;;;;;;19.90;75.47;97733.34;5003693;28;20062;-66
2021/08/14 04:44:32;;;;;;;19.50;10.60;;;;;;;19.87;75.13;97700.44;5004677;28;20045;-66
2021/08/14 04:47:00;;;;;;;17.10;8.40;;;;;;;20.16;74.33;97724.28;5003657;28;20481;-67
2021/08/14 04:49:27;;;;;;;11.50;8.18;;;;;;;20.04;74.18;97679.75;5003763;28;20061;-67
2021/08/14 04:51:54;;;;;;;13.00;8.27;;;;;;;18.74;73.26;97448.53;5000411;28;20070;-66
2021/08/14 04:54:21;;;;;;;11.02;8.50;;;;;;;20.54;73.05;97728.69;4982238;28;20397;-69
2021/08/14 04:56:47;;;;;;;10.80;8.43;;;;;;;20.73;72.31;97733.72;4982244;28;20622;-68
2021/08/14 04:59:14;;;;;;;11.63;8.45;;;;;;;20.76;72.41;97724.41;4982255;28;20056;-67
2021/08/14 05:01:41;;;;;;;10.27;9.02;;;;;;;20.83;72.15;97727.16;4982794;28;20161;-66
2021/08/14 05:04:08;;;;;;;12.27;8.18;;;;;;;20.98;71.72;97725.00;4982730;28;20144;-67
2021/08/14 05:06:38;;;;;;;10.10;7.97;;;;;;;21.02;71.32;97725.75;4980461;28;20477;-68
2021/08/14 05:09:05;;;;;;;10.38;8.25;;;;;;;20.69;70.88;97648.50;4981965;28;20112;-68
2021/08/14 05:11:32;;;;;;;15.20;8.60;;;;;;;21.32;70.28;97729.34;4984177;28;20568;-67
2021/08/14 05:13:59;;;;;;;14.65;8.40;;;;;;;21.01;71.32;97691.13;4982612;28;20129;-66
2021/08/14 05:16:26;;;;;;;11.70;8.07;;;;;;;21.54;70.19;97730.63;4983914;28;20054;-66
2021/08/14 05:18:53;;;;;;;17.02;8.43;;;;;;;21.36;69.05;97656.78;4983712;28;20054;-66
2021/08/14 05:21:20;;;;;;;9.93;8.55;;;;;;;21.80;69.19;97729.84;4982276;28;20090;-65
2021/08/14 05:23:47;;;;;;;13.63;8.43;;;;;;;21.55;68.97;97689.94;4982683;28;20105;-66
2021/08/14 05:26:14;;;;;;;9.90;7.85;;;;;;;21.77;68.19;97677.09;4982446;28;20054;-69
2021/08/14 05:28:41;;;;;;;12.32;8.50;;;;;;;22.11;67.88;97717.19;4800937;28;5000470;-67
2021/08/14 05:31:08;;;;;;;12.15;9.05;;;;;;;22.25;67.19;97708.50;4984119;28;20513;-68
2021/08/14 05:33:35;;;;;;;15.40;9.23;;;;;;;22.57;66.17;97721.25;4980609;28;20050;-68
2021/08/14 05:36:02;;;;;;;11.18;8.07;;;;;;;22.51;65.58;97697.53;4982144;28;20054;-68
2021/08/14 05:38:29;;;;;;;13.45;8.15;;;;;;;22.91;65.06;97716.09;4982531;28;20104;-67
2021/08/14 05:40:55;;;;;;;9.93;8.23;;;;;;;23.11;63.81;97708.44;4983054;28;20058;-68
2021/08/14 05:43:23;;;;;;;13.32;8.63;;;;;;;22.72;63.42;97629.31;4982323;28;20061;-69
2021/08/14 05:45:56;;;;;;;12.43;8.57;;;;;;;22.91;63.95;97710.47;4988007;28;20459;-67
2021/08/14 05:48:23;;;;;;;9.60;7.65;;;;;;;22.34;63.70;97606.28;4986205;28;20405;-65
2021/08/14 05:50:50;;;;;;;12.93;7.97;;;;;;;22.42;63.98;97611.38;4983784;28;20320;-61
2021/08/14 05:53:18;;;;;;;8.65;7.82;;;;;;;23.15;63.72;97678.03;4989508;28;20238;-64
2021/08/14 05:55:45;;;;;;;10.07;8.70;;;;;;;23.36;62.89;97698.16;4992355;28;20879;-60
2021/08/14 05:58:12;;;;;;;15.30;7.88;;;;;;;23.63;62.39;97697.97;5001422;28;20053;-65
2021/08/14 06:00:39;;;;;;;8.38;7.57;;;;;;;23.38;60.93;97621.38;5006754;28;20065;-64
2021/08/14 06:03:05;;;;;;;14.68;9.05;;;;;;;23.85;60.79;97690.53;5006055;28;20575;-64
2021/08/14 06:05:32;;;;;;;9.85;8.68;;;;;;;23.67;60.20;97619.44;5006830;28;20046;-66
2021/08/14 06:07:59;;;;;;;8.95;7.28;;;;;;;23.51;59.47;97579.84;5000128;28;20058;-61
2021/08/14 06:10:26;;;;;;;8.85;8.05;;;;;;;23.67;58.88;97599.63;4999262;28;20538;-63
2021/08/14 06:12:52;;;;;;;9.05;8.15;;;;;;;24.18;59.58;97682.84;5006271;28;20514;-64
2021/08/14 06:15:20;;;;;;;9.02;8.15;;;;;;;24.16;59.15;97671.97;5006058;28;20057;-65
2021/08/14 06:17:47;;;;;;;8.80;7.90;;;;;;;24.19;59.90;97676.72;5005073;28;20206;-66
2021/08/14 06:21:46;;;;;;;12.25;8.57;;;;;;;24.16;58.78;97632.31;5050503;28;20384;-65
2021/08/14 06:24:13;;;;;;;12.82;8.75;;;;;;;22.90;58.39;97392.41;5040365;28;20045;-66
2021/08/14 06:26:40;;;;;;;11.90;8.63;;;;;;;24.85;58.09;97690.31;5040391;28;20053;-66
2021/08/14 06:29:07;;;;;;;11.23;8.32;;;;;;;24.86;57.43;97670.03;5039344;28;20053;-66
2021/08/14 06:31:33;;;;;;;9.57;8.43;;;;;;;24.06;58.36;97588.09;5039061;28;20049;-65
2021/08/14 06:34:01;;;;;;;11.02;8.50;;;;;;;24.26;58.33;97619.91;5038469;28;20511;-64
2021/08/14 06:36:27;;;;;;;9.50;8.27;;;;;;;24.86;57.19;97658.69;5040035;28;20508;-67
2021/08/14 06:38:56;;;;;;;9.00;7.72;;;;;;;24.80;56.39;97615.09;5038402;28;20057;-67
2021/08/14 06:41:23;;;;;;;10.85;8.20;;;;;;;25.43;55.18;97662.63;5038777;28;20527;-66
2021/08/14 06:43:50;;;;;;;13.32;9.07;;;;;;;25.12;56.29;97636.81;5039475;28;20472;-67
2021/08/14 06:46:16;;;;;;;9.70;8.25;;;;;;;25.03;54.59;97577.97;5037934;28;20041;-68
2021/08/14 06:48:43;;;;;;;9.68;8.70;;;;;;;25.24;53.93;97610.53;5040163;28;20057;-69
2021/08/14 06:51:13;;;;;;;11.80;8.77;;;;;;;25.76;53.64;97655.47;5039688;28;20456;-67
2021/08/14 06:53:40;;;;;;;14.02;8.65;;;;;;;25.98;53.18;97659.19;5040289;28;20060;-67
2021/08/14 06:56:08;;;;;;;15.55;9.10;;;;;;;25.82;51.93;97605.38;5039172;28;20057;-66
2021/08/14 06:58:34;;;;;;;24.60;18.58;;;;;;;26.37;51.52;97652.94;5040380;28;20049;-69
2021/08/14 07:01:01;;;;;;;11.77;9.23;;;;;;;26.68;50.39;97656.72;5039878;28;20432;-63
2021/08/14 07:03:28;;;;;;;12.88;8.75;;;;;;;26.21;50.12;97565.06;5040170;28;20076;-66
2021/08/14 07:05:55;;;;;;;9.45;8.55;;;;;;;26.92;48.91;97654.97;5038559;28;20128;-64
2021/08/14 07:08:22;;;;;;;11.90;8.30;;;;;;;27.22;46.37;97645.69;5037548;28;20060;-66
2021/08/14 07:10:48;;;;;;;10.70;8.90;;;;;;;27.26;46.55;97649.22;5039518;28;20060;-65
2021/08/14 07:13:15;;;;;;;10.95;9.95;;;;;;;27.24;45.93;97625.31;5037612;28;20401;-67
2021/08/14 07:15:42;;;;;;;9.80;8.73;;;;;;;27.34;44.79;97659.06;5038929;28;20049;-67
2021/08/14 07:18:09;;;;;;;9.68;8.77;;;;;;;27.31;45.22;97625.88;5038072;28;20065;-65
2021/08/14 07:20:36;;;;;;;10.15;9.27;;;;;;;27.19;45.82;97618.16;5038980;28;20160;-66
2021/08/14 07:23:03;;;;;;;10.90;9.75;;;;;;;27.31;44.36;97591.72;5039491;28;20625;-65
2021/08/14 07:25:29;;;;;;;11.35;9.48;;;;;;;27.94;43.05;97637.50;5039532;28;20463;-67
2021/08/14 07:27:57;;;;;;;13.23;10.02;;;;;;;27.25;42.24;97570.78;5039381;28;20119;-72
2021/08/14 07:30:23;;;;;;;16.95;9.95;;;;;;;28.20;42.82;97638.00;5037854;28;21487;-68
2021/08/14 07:32:50;;;;;;;10.55;9.55;;;;;;;27.61;42.12;97559.56;5026172;28;20734;-68
2021/08/14 07:35:17;;;;;;;10.70;9.65;;;;;;;28.07;41.70;97603.94;5024388;28;20045;-67
2021/08/14 07:37:49;;;;;;;10.07;8.82;;;;;;;27.83;41.54;97534.59;5005679;28;20476;-69
2021/08/14 07:40:21;;;;;;;10.05;8.80;;;;;;;28.72;40.98;97632.03;5023369;28;20057;-70
2021/08/14 07:42:48;;;;;;;10.80;9.77;;;;;;;28.91;41.18;97644.22;5020590;28;20056;-71
2021/08/14 07:45:19;;;;;;;11.75;9.38;;;;;;;28.80;40.46;97632.50;5025919;28;20168;-72
2021/08/14 07:47:48;;;;;;;9.98;8.80;;;;;;;28.67;40.70;97577.69;5025132;28;20512;-69
2021/08/14 07:50:19;;;;;;;15.82;10.95;;;;;;;28.78;41.45;97629.34;5023056;28;20426;-68
2021/08/14 07:52:47;;;;;;;12.57;9.73;;;;;;;27.88;41.51;97613.72;5025082;28;20053;-69
2021/08/14 07:55:15;;;;;;;9.70;8.80;;;;;;;27.50;42.26;97633.22;5023745;28;20053;-68
2021/08/14 07:57:42;;;;;;;15.95;10.30;;;;;;;27.78;41.45;97609.25;5025038;28;20527;-69
2021/08/14 08:00:12;;;;;;;11.05;9.90;;;;;;;27.00;40.41;97406.00;5024922;28;20053;-67
2021/08/14 08:02:39;;;;;;;20.73;13.65;;;;;;;28.42;40.79;97623.63;5024623;28;20053;-67
2021/08/14 08:05:08;;;;;;;12.70;10.88;;;;;;;28.38;40.53;97623.78;5025115;28;20057;-67
2021/08/14 08:07:37;;;;;;;11.63;10.23;;;;;;;28.51;41.09;97620.78;5024273;28;20045;-67
2021/08/14 08:10:08;;;;;;;10.27;9.23;;;;;;;27.98;41.51;97623.09;5022293;28;20069;-65
2021/08/14 08:12:35;;;;;;;12.30;9.57;;;;;;;28.60;41.21;97629.34;5024021;28;20124;-70
2021/08/14 08:15:01;;;;;;;15.52;12.70;;;;;;;28.17;40.86;97591.31;5022853;28;20060;-67
2021/08/14 08:17:29;;;;;;;16.70;10.48;;;;;;;28.88;40.47;97628.06;5023849;28;20064;-68
2021/08/14 08:19:56;;;;;;;13.25;11.32;;;;;;;28.86;40.15;97614.28;5024086;28;20523;-70
2021/08/14 08:22:22;;;;;;;13.65;10.15;;;;;;;28.95;39.59;97574.31;5022245;28;20150;-67
2021/08/14 08:24:49;;;;;;;13.32;11.93;;;;;;;29.36;39.37;97612.72;5023217;28;20136;-67
2021/08/14 08:27:16;;;;;;;13.20;10.70;;;;;;;29.18;39.22;97598.53;5024270;28;20049;-72
2021/08/14 08:29:43;;;;;;;13.05;11.75;;;;;;;29.52;38.88;97603.78;5023993;28;20049;-68
2021/08/14 08:32:11;;;;;;;12.90;11.60;;;;;;;29.69;38.31;97601.38;5022879;28;20504;-65
2021/08/14 08:34:39;;;;;;;16.00;13.15;;;;;;;28.38;38.43;97400.63;5022971;28;20050;-65
2021/08/14 08:37:06;;;;;;;11.98;10.77;;;;;;;28.60;39.55;97604.47;5017027;28;20045;-69
2021/08/14 08:39:34;;;;;;;16.00;10.93;;;;;;;28.77;39.62;97565.78;5021783;28;20049;-69
2021/08/14 08:42:01;;;;;;;14.55;11.73;;;;;;;29.10;39.69;97563.03;5023182;28;20452;-70
2021/08/14 08:44:28;;;;;;;12.00;10.90;;;;;;;29.08;38.27;97465.69;5021869;28;20499;-68
2021/08/14 08:46:54;;;;;;;14.45;10.23;;;;;;;30.28;37.47;97591.78;5019619;28;20072;-68
2021/08/14 08:49:23;;;;;;;11.88;10.63;;;;;;;30.15;37.61;97582.63;5007911;28;20069;-66
2021/08/14 08:51:50;;;;;;;11.48;10.48;;;;;;;28.56;37.97;97441.34;4949147;28;20624;-65
2021/08/14 09:13:39;;;;;;;11.88;10.77;;;;;;;29.48;37.50;97574.63;5139124;27;20392;-69
2021/08/14 09:16:23;;;;;;;10.82;8.73;;;;;;;29.95;37.81;97568.97;5118857;27;20602;-62
2021/08/14 09:19:01;;;;;;;13.40;8.45;;;;;;;29.59;35.44;97472.84;5119617;27;20055;-68
2021/08/14 09:21:38;;;;;;;22.80;9.88;;;;;;;29.18;35.27;97395.91;5112891;28;20047;-71
2021/08/14 09:24:07;;;;;;;10.93;9.82;;;;;;;30.10;34.86;97569.81;5126047;27;20134;-68
2021/08/14 09:26:46;;;;;;;9.02;8.05;;;;;;;29.97;34.65;97557.81;5119771;27;20430;-71
2021/08/14 09:29:13;;;;;;;11.25;9.32;;;;;;;30.22;34.60;97557.38;5109616;28;20059;-72
2021/08/14 09:31:47;;;;;;;11.45;9.05;;;;;;;30.42;34.28;97563.22;5110150;27;20044;-72
2021/08/14 09:34:19;;;;;;;11.77;9.60;;;;;;;29.85;34.38;97467.44;5095223;27;20091;-68
2021/08/14 09:37:09;;;;;;;11.05;8.27;;;;;;;30.16;34.64;97567.84;5100863;28;20047;-69
2021/08/14 09:39:50;;;;;;;9.52;7.88;;;;;;;30.40;34.13;97560.06;5119416;27;20039;-70
2021/08/14 09:42:17;;;;;;;9.02;8.10;;;;;;;30.31;34.20;97571.56;5104428;27;20074;-65
2021/08/14 09:44:44;;;;;;;14.18;9.80;;;;;;;30.80;33.98;97554.63;5119251;27;20154;-63
2021/08/14 09:47:31;;;;;;;10.75;9.68;;;;;;;31.28;33.30;97549.47;5117990;27;20055;-71
2021/08/14 09:49:57;;;;;;;13.55;11.77;;;;;;;30.98;33.20;97524.22;5117169;28;20051;-71
2021/08/14 09:52:26;;;;;;;10.70;9.70;;;;;;;30.81;33.19;97550.47;5120269;27;20055;-71
2021/08/14 09:54:54;;;;;;;10.63;9.63;;;;;;;30.47;32.34;97542.53;5119681;27;20051;-70
2021/08/14 09:57:21;;;;;;;9.82;8.85;;;;;;;30.57;32.27;97541.13;5110501;27;20501;-69
2021/08/14 09:59:49;;;;;;;9.93;9.02;;;;;;;30.17;32.25;97432.22;5110187;27;20044;-68
2021/08/14 10:02:19;;;;;;;11.85;10.65;;;;;;;29.27;32.33;97284.50;5105571;27;20435;-68
2021/08/14 10:04:47;;;;;;;10.63;9.00;;;;;;;30.45;33.64;97532.84;5116473;27;20489;-68
2021/08/14 10:07:15;;;;;;;14.70;9.95;;;;;;;29.87;32.60;97458.38;5104453;28;20050;-72
2021/08/14 10:09:43;;;;;;;9.85;8.88;;;;;;;30.61;32.41;97530.31;5118935;27;20054;-70
2021/08/14 10:12:14;;;;;;;11.27;10.27;;;;;;;30.38;32.94;97531.16;5107327;27;20091;-66
2021/08/14 10:14:44;;;;;;;12.75;10.02;;;;;;;30.66;32.52;97481.00;5102714;27;20055;-68
2021/08/14 10:17:12;;;;;;;20.00;14.65;;;;;;;31.31;31.85;97516.19;5104951;28;20279;-67
2021/08/14 10:19:39;;;;;;;13.60;10.98;;;;;;;31.01;31.81;97477.44;5106724;28;20047;-68
2021/08/14 10:22:08;;;;;;;12.15;10.90;;;;;;;31.04;31.93;97510.78;5104197;28;20051;-67
2021/08/14 10:24:44;;;;;;;11.93;10.73;;;;;;;31.25;31.80;97527.53;5106435;28;20044;-67
2021/08/14 10:27:12;;;;;;;13.50;11.75;;;;;;;31.00;32.49;97510.19;5103831;28;20054;-69
2021/08/14 10:29:43;;;;;;;11.30;9.45;;;;;;;31.29;31.95;97429.94;5106327;28;20059;-66
2021/08/14 10:32:10;;;;;;;13.68;11.63;;;;;;;31.28;32.32;97497.91;5105687;28;20054;-68
2021/08/14 10:34:37;;;;;;;10.82;9.82;;;;;;;31.07;32.03;97504.06;5106715;28;20062;-69
2021/08/14 10:37:31;;;;;;;10.93;9.05;;;;;;;31.45;31.52;97495.31;5105276;28;20131;-68
2021/08/14 10:39:57;;;;;;;;;;;;;;;31.59;31.79;97494.47;5106588;28;20044;-66
2021/08/14 10:42:49;;;;;;;15.30;12.45;;;;;;;31.41;31.44;97501.25;5104285;28;19924;-66
2021/08/14 10:45:18;;;;;;;11.15;9.15;;;;;;;31.52;31.79;97495.66;5105644;28;20044;-66
2021/08/14 10:47:47;;;;;;;10.75;9.65;;;;;;;31.38;32.27;97490.00;5105275;28;20426;-68
2021/08/14 10:50:32;;;;;;;13.30;11.50;;;;;;;31.83;31.61;97486.47;5105534;28;20138;-67
2021/08/14 10:53:11;;;;;;;10.57;9.48;;;;;;;31.38;32.03;97485.06;5105734;28;20051;-66
2021/08/14 10:55:42;;;;;;;14.77;10.45;;;;;;;31.81;31.30;97483.31;5105939;28;20086;-66
2021/08/14 10:58:16;;;;;;;12.27;9.82;;;;;;;31.81;29.50;97483.31;5105598;28;20516;-68
2021/08/14 11:00:46;;;;;;;9.25;8.45;;;;;;;31.04;31.21;97487.88;5104662;28;20075;-66
2021/08/14 11:03:14;;;;;;;16.30;10.57;;;;;;;31.52;31.41;97483.44;5116311;27;20222;-68
2021/08/14 11:05:45;;;;;;;10.65;9.35;;;;;;;31.60;31.45;97455.94;5126328;27;20054;-69
2021/08/14 11:08:30;;;;;;;15.20;11.85;;;;;;;31.85;30.69;97461.75;5125938;27;20055;-66
2021/08/14 11:10:58;;;;;;;9.82;8.88;;;;;;;32.05;30.10;97475.31;5125838;27;20592;-68
2021/08/14 11:13:31;;;;;;;10.85;8.00;;;;;;;31.72;30.87;97463.41;5125953;27;20094;-68
2021/08/14 11:15:58;;;;;;;13.80;9.82;;;;;;;31.16;32.07;97443.84;5124321;27;20130;-67
2021/08/14 11:18:57;;;;;;;9.73;8.32;;;;;;;30.52;32.95;97469.53;5124349;27;20554;-67
2021/08/14 11:22:16;;;;;;;9.63;8.73;;;;;;;30.83;32.07;97472.72;5125447;27;20053;-66
2021/08/14 11:24:44;;;;;;;11.35;8.93;;;;;;;30.67;31.58;97476.84;5063714;28;20540;-67
2021/08/14 11:27:18;;;;;;;10.45;9.25;;;;;;;30.90;31.91;97466.59;5119550;27;20047;-67
2021/08/14 11:29:45;;;;;;;9.63;8.27;;;;;;;30.85;31.85;97464.44;5124546;27;20055;-66
2021/08/14 11:32:12;;;;;;;12.48;9.18;;;;;;;31.39;31.56;97465.81;5125485;27;20047;-66
2021/08/14 11:34:42;;;;;;;11.07;8.35;;;;;;;30.95;31.80;97469.53;5123795;27;20687;-67
2021/08/14 11:37:09;;;;;;;11.68;8.52;;;;;;;30.73;32.78;97469.13;5125311;27;20050;-68
2021/08/14 11:39:37;;;;;;;9.73;8.50;;;;;;;30.77;32.94;97464.03;5125715;27;20103;-67
2021/08/14 11:42:04;;;;;;;10.48;9.02;;;;;;;30.63;32.83;97419.03;5124920;27;20059;-67
2021/08/14 11:44:33;;;;;;;10.82;9.40;;;;;;;30.45;33.17;97458.47;5123940;27;20089;-67
2021/08/14 11:47:05;;;;;;;8.75;7.95;;;;;;;30.16;32.79;97459.22;5125029;27;20108;-66
2021/08/14 11:49:51;;;;;;;10.85;8.20;;;;;;;30.51;32.97;97457.31;5125613;27;20537;-67
2021/08/14 11:52:25;;;;;;;13.00;10.27;;;;;;;30.55;33.10;97440.75;5125065;27;20051;-66
2021/08/14 11:54:56;;;;;;;11.85;8.23;;;;;;;30.87;33.64;97465.50;5125062;27;20051;-68